Time;durP1;ratioP1;P1;durP2;ratioP2;P2;SDS_P1;SDS_P2;PMS_P1;PMS_P2;Temp;Humidity;BMP_temperature;BMP_pressure;BME280_temperature;BME280_humidity;BME280_pressure;Samples;Min_cycle;Max_cycle;Signal;HPM_P1;HPM_P2
2022/03/07 00:02:12;;;;;;;23.93;11.40;;;;;;;37.00;47.82;100807.06;4992356;28;20425;-76
2022/03/07 00:04:38;;;;;;;16.67;9.20;;;;;;;37.27;47.11;100810.88;4992318;28;20425;-77
2022/03/07 00:07:05;;;;;;;16.03;7.80;;;;;;;37.35;46.69;100804.78;4992382;28;20952;-77
2022/03/07 00:09:31;;;;;;;13.33;7.93;;;;;;;37.54;46.72;100800.00;4992566;28;20866;-77
2022/03/07 00:11:57;;;;;;;24.90;11.50;;;;;;;37.47;46.51;100796.13;4992553;28;20453;-77
2022/03/07 00:14:23;;;;;;;17.67;8.50;;;;;;;37.20;46.88;100794.22;4992162;28;21006;-75
2022/03/07 00:16:49;;;;;;;18.27;10.87;;;;;;;37.30;46.78;100802.13;4992654;28;20424;-77
2022/03/07 00:19:16;;;;;;;18.23;8.20;;;;;;;37.24;46.60;100800.66;4992104;28;20442;-78
2022/03/07 00:21:42;;;;;;;20.40;9.67;;;;;;;37.42;45.94;100799.75;4992367;28;20413;-77
2022/03/07 00:24:10;;;;;;;17.47;8.60;;;;;;;37.61;45.68;100800.38;4992184;28;20421;-77
2022/03/07 00:26:36;;;;;;;21.93;9.70;;;;;;;37.54;45.73;100800.00;4992151;28;20449;-77
2022/03/07 00:29:02;;;;;;;15.07;8.37;;;;;;;37.39;45.93;100781.44;4992075;28;20847;-79
2022/03/07 00:31:28;;;;;;;16.60;8.93;;;;;;;37.34;46.46;100779.63;4992433;28;20422;-77
2022/03/07 00:33:54;;;;;;;15.63;8.90;;;;;;;37.19;46.67;100777.19;4991984;28;20475;-77
2022/03/07 00:36:20;;;;;;;22.13;9.47;;;;;;;37.30;46.05;100775.88;4992188;28;20428;-77
2022/03/07 00:38:48;;;;;;;17.73;10.03;;;;;;;37.26;46.55;100780.31;4991908;28;20406;-77
2022/03/07 00:41:14;;;;;;;17.87;10.03;;;;;;;37.34;46.59;100778.81;4992034;28;20429;-78
2022/03/07 00:43:40;;;;;;;16.80;7.70;;;;;;;37.48;45.62;100774.16;4991801;28;20413;-77
2022/03/07 00:46:07;;;;;;;22.57;7.90;;;;;;;37.43;45.82;100763.47;4991971;28;20429;-77
2022/03/07 00:48:33;;;;;;;15.37;9.10;;;;;;;37.50;46.09;100760.31;4991748;28;20468;-77
2022/03/07 00:50:59;;;;;;;18.20;9.13;;;;;;;37.42;46.41;100761.06;4991827;28;20457;-76
2022/03/07 00:53:26;;;;;;;16.97;7.93;;;;;;;37.18;47.10;100758.56;4991509;28;20430;-77
2022/03/07 00:55:54;;;;;;;18.73;9.10;;;;;;;37.51;46.17;100751.13;4991749;28;20988;-77
2022/03/07 00:58:22;;;;;;;16.93;10.17;;;;;;;37.62;46.21;100741.63;4977996;28;20426;-77
2022/03/07 01:00:49;;;;;;;21.57;10.23;;;;;;;37.60;46.99;100727.63;4977417;28;20507;-78
2022/03/07 01:03:17;;;;;;;17.23;10.13;;;;;;;37.68;46.01;100728.78;4991620;28;20923;-75
2022/03/07 01:05:46;;;;;;;21.20;8.73;;;;;;;37.37;46.97;100724.09;4991581;28;20472;-76
2022/03/07 01:08:12;;;;;;;18.93;8.63;;;;;;;37.14;47.29;100715.13;4991657;28;20547;-77
2022/03/07 01:10:39;;;;;;;12.43;9.27;;;;;;;37.53;45.86;100709.13;4992844;28;20937;-77
2022/03/07 01:13:07;;;;;;;21.57;8.73;;;;;;;37.61;45.64;100702.97;4991429;28;20429;-77
2022/03/07 01:15:33;;;;;;;13.53;8.80;;;;;;;37.53;45.72;100701.00;4991117;28;20457;-77
2022/03/07 01:18:00;;;;;;;15.30;7.93;;;;;;;37.63;45.60;100694.56;4990943;28;20422;-79
2022/03/07 01:20:27;;;;;;;15.40;9.20;;;;;;;37.73;45.40;100694.28;4991209;28;20432;-77
2022/03/07 01:22:53;;;;;;;19.30;9.70;;;;;;;37.45;46.23;100682.78;4991477;28;20425;-77
2022/03/07 01:25:19;;;;;;;14.63;7.90;;;;;;;37.56;45.67;100678.72;4991876;28;20425;-79
2022/03/07 01:27:46;;;;;;;23.50;10.83;;;;;;;37.48;45.55;100687.56;4990889;28;20996;-77
2022/03/07 01:30:12;;;;;;;14.27;7.97;;;;;;;37.58;45.80;100671.09;4991158;28;20431;-77
2022/03/07 01:32:38;;;;;;;19.13;9.30;;;;;;;37.71;45.48;100668.63;4990686;28;20934;-78
2022/03/07 01:35:06;;;;;;;20.80;8.67;;;;;;;37.63;45.43;100652.03;4990283;28;20997;-78
2022/03/07 01:37:32;;;;;;;29.53;8.43;;;;;;;37.79;45.31;100651.63;4991653;28;20425;-77
2022/03/07 01:39:58;;;;;;;23.80;10.77;;;;;;;37.50;46.44;100647.47;4990972;28;20992;-76
2022/03/07 01:42:25;;;;;;;14.60;8.43;;;;;;;37.55;45.96;100641.94;4991294;28;20417;-77
2022/03/07 01:44:51;;;;;;;17.77;7.73;;;;;;;37.42;46.82;100642.81;4991282;28;20417;-77
2022/03/07 01:47:17;;;;;;;16.73;8.00;;;;;;;37.27;46.52;100638.53;4991094;28;20992;-78
2022/03/07 01:49:43;;;;;;;19.27;6.83;;;;;;;37.01;45.79;100634.81;4990844;28;20453;-79
2022/03/07 01:52:10;;;;;;;21.93;8.93;;;;;;;37.22;45.80;100632.47;4990337;28;20428;-78
2022/03/07 01:54:36;;;;;;;20.53;8.43;;;;;;;37.29;46.02;100633.63;4991327;28;20420;-79
2022/03/07 01:57:02;;;;;;;16.43;8.00;;;;;;;37.38;45.62;100631.81;4990505;28;20435;-78
2022/03/07 01:59:30;;;;;;;31.10;10.13;;;;;;;37.43;45.61;100628.16;4991129;28;20452;-77
2022/03/07 02:01:58;;;;;;;15.87;7.87;;;;;;;37.32;45.36;100619.50;4979563;28;21029;-79
2022/03/07 02:04:24;;;;;;;23.87;8.80;;;;;;;37.17;45.95;100621.75;4971701;28;20950;-78
2022/03/07 02:06:50;;;;;;;16.03;7.90;;;;;;;37.37;45.97;100618.56;4971611;28;20965;-77
2022/03/07 02:09:17;;;;;;;18.37;9.00;;;;;;;37.42;45.70;100613.03;4973978;28;20470;-77
2022/03/07 02:11:43;;;;;;;22.03;11.07;;;;;;;37.33;46.13;100620.28;4976710;28;20416;-79
2022/03/07 02:14:22;;;;;;;13.80;8.20;;;;;;;37.36;45.89;100619.69;4975478;28;20831;-78
2022/03/07 02:16:48;;;;;;;15.13;7.23;;;;;;;37.33;45.83;100625.69;4975233;28;20538;-79
2022/03/07 02:19:15;;;;;;;16.60;8.40;;;;;;;37.22;45.92;100618.94;4975174;28;20578;-76
2022/03/07 02:21:47;;;;;;;16.90;7.00;;;;;;;37.22;45.71;100621.63;4988455;28;20487;-76
2022/03/07 02:24:15;;;;;;;14.13;8.53;;;;;;;37.39;45.72;100619.09;4994770;28;20424;-77
2022/03/07 02:26:41;;;;;;;26.00;8.53;;;;;;;37.33;46.02;100617.59;4994600;28;20420;-76
2022/03/07 02:29:09;;;;;;;18.63;9.00;;;;;;;37.26;46.33;100625.31;4994647;28;20827;-79
2022/03/07 02:31:36;;;;;;;10.90;7.40;;;;;;;37.40;45.90;100630.72;4994624;28;20877;-79
2022/03/07 02:34:04;;;;;;;19.00;7.90;;;;;;;37.43;45.35;100620.06;4994159;28;20485;-79
2022/03/07 02:36:30;;;;;;;16.37;7.10;;;;;;;37.45;45.41;100615.16;4994595;28;20463;-79
2022/03/07 02:38:57;;;;;;;30.17;9.00;;;;;;;37.35;46.24;100618.91;4993800;28;20421;-78
2022/03/07 02:41:23;;;;;;;20.00;8.73;;;;;;;37.35;45.83;100616.19;4994449;28;20463;-79
2022/03/07 02:43:49;;;;;;;16.97;8.80;;;;;;;37.56;45.16;100621.88;4993811;28;20968;-79
2022/03/07 02:46:15;;;;;;;15.83;8.40;;;;;;;37.35;45.97;100615.41;4994111;28;20550;-77
2022/03/07 02:48:41;;;;;;;18.90;7.60;;;;;;;37.34;45.71;100606.47;4993754;28;20453;-77
2022/03/07 02:51:07;;;;;;;18.43;9.00;;;;;;;37.16;46.25;100610.13;4993960;28;20421;-76
2022/03/07 02:53:34;;;;;;;20.33;8.73;;;;;;;37.45;45.73;100606.25;4994278;28;20425;-78
2022/03/07 02:56:00;;;;;;;17.63;9.20;;;;;;;36.97;47.05;100596.78;4993586;28;20449;-77
2022/03/07 02:58:26;;;;;;;16.70;7.67;;;;;;;37.03;47.23;100594.78;4993459;28;20414;-78
2022/03/07 03:00:52;;;;;;;16.20;7.10;;;;;;;36.93;46.12;100595.78;4993761;28;20421;-78
2022/03/07 03:03:18;;;;;;;23.97;8.70;;;;;;;37.04;46.72;100594.44;4994080;28;20429;-79
2022/03/07 03:05:44;;;;;;;18.43;10.00;;;;;;;37.16;46.39;100585.78;4993439;28;20421;-79
2022/03/07 03:08:10;;;;;;;15.30;8.33;;;;;;;37.10;46.52;100587.03;4992995;28;20472;-79
2022/03/07 03:10:36;;;;;;;24.67;7.83;;;;;;;37.26;46.80;100587.44;4993728;28;21055;-78
2022/03/07 03:13:03;;;;;;;23.33;8.93;;;;;;;37.04;46.98;100580.94;4993235;28;20492;-79
2022/03/07 03:15:29;;;;;;;19.77;9.50;;;;;;;37.14;46.83;100585.31;4993791;28;20413;-79
2022/03/07 03:17:55;;;;;;;13.77;7.63;;;;;;;37.04;46.93;100590.94;4994634;28;20455;-79
2022/03/07 03:20:21;;;;;;;15.83;8.17;;;;;;;36.80;47.15;100580.38;4991860;28;20847;-79
2022/03/07 03:22:47;;;;;;;17.13;7.67;;;;;;;36.88;46.94;100585.09;4993609;28;20859;-79
2022/03/07 03:25:16;;;;;;;17.43;8.80;;;;;;;36.80;47.89;100580.38;4992921;28;20450;-77
2022/03/07 03:27:43;;;;;;;20.90;8.60;;;;;;;36.90;47.89;100587.50;4992750;28;20432;-77
2022/03/07 03:30:11;;;;;;;17.97;8.50;;;;;;;36.92;47.42;100577.97;4993012;28;20433;-78
2022/03/07 03:32:38;;;;;;;21.93;10.30;;;;;;;36.92;47.70;100588.00;4993336;28;20429;-77
2022/03/07 03:35:04;;;;;;;17.43;9.03;;;;;;;36.59;48.03;100593.56;4992841;28;20605;-77
2022/03/07 03:37:30;;;;;;;16.80;8.63;;;;;;;36.64;47.14;100590.72;4992294;28;20448;-77
2022/03/07 03:39:56;;;;;;;11.47;7.30;;;;;;;36.90;47.16;100588.31;4993424;28;20422;-77
2022/03/07 03:42:22;;;;;;;19.20;7.93;;;;;;;37.01;47.07;100581.53;4992653;28;20857;-77
2022/03/07 03:44:49;;;;;;;22.57;7.90;;;;;;;37.02;46.97;100583.16;4994157;28;20854;-78
2022/03/07 03:47:16;;;;;;;17.03;8.80;;;;;;;36.94;47.03;100591.19;4993146;28;20483;-78
2022/03/07 03:49:42;;;;;;;16.57;7.23;;;;;;;37.12;46.68;100591.00;4993118;28;20468;-79
2022/03/07 03:52:09;;;;;;;18.97;7.80;;;;;;;37.17;46.73;100587.38;4992945;28;20426;-79
2022/03/07 03:54:35;;;;;;;24.67;8.37;;;;;;;37.10;46.35;100595.13;4993115;28;20441;-78
2022/03/07 03:57:02;;;;;;;24.23;8.20;;;;;;;36.67;47.66;100581.22;4992937;28;20516;-78
2022/03/07 03:59:28;;;;;;;16.80;8.13;;;;;;;36.69;47.18;100589.81;4992913;28;20859;-79
2022/03/07 04:01:54;;;;;;;10.53;6.60;;;;;;;36.72;47.39;100591.94;4991991;28;21051;-78
2022/03/07 04:04:20;;;;;;;14.00;8.40;;;;;;;36.76;47.28;100587.50;4992345;28;20429;-78
2022/03/07 04:06:46;;;;;;;19.67;9.17;;;;;;;37.12;47.36;100587.50;4992698;28;20779;-77
2022/03/07 04:09:17;;;;;;;11.00;6.20;;;;;;;36.88;46.84;100598.59;4992392;28;21002;-78
2022/03/07 04:11:44;;;;;;;16.30;8.70;;;;;;;36.75;47.59;100596.72;4992443;28;20496;-79
2022/03/07 04:14:10;;;;;;;17.97;8.20;;;;;;;37.30;46.36;100593.84;4992342;28;20421;-79
2022/03/07 04:16:38;;;;;;;14.37;8.07;;;;;;;37.10;46.63;100597.84;4992660;28;21000;-78
2022/03/07 04:19:08;;;;;;;16.83;7.40;;;;;;;37.04;46.58;100597.16;4992569;28;20417;-77
2022/03/07 04:21:35;;;;;;;18.50;7.70;;;;;;;36.91;46.81;100608.03;4992598;28;20417;-77
2022/03/07 04:24:02;;;;;;;16.17;8.00;;;;;;;37.32;46.48;100610.56;4991889;28;20512;-79
2022/03/07 04:26:28;;;;;;;18.30;7.27;;;;;;;37.44;45.42;100613.53;4992438;28;20421;-79
2022/03/07 04:28:55;;;;;;;14.60;7.63;;;;;;;37.37;45.49;100615.88;4985070;28;20851;-76
2022/03/07 04:31:22;;;;;;;18.77;8.40;;;;;;;37.43;45.34;100617.34;4972746;28;20427;-77
2022/03/07 04:33:49;;;;;;;17.77;8.80;;;;;;;37.53;45.62;100619.81;4987143;28;20547;-77
2022/03/07 04:36:18;;;;;;;16.90;8.20;;;;;;;37.47;45.68;100626.47;4995471;28;20424;-79
2022/03/07 04:38:45;;;;;;;22.03;9.17;;;;;;;37.27;45.96;100626.94;4995565;28;20413;-79
2022/03/07 04:41:11;;;;;;;17.53;7.17;;;;;;;37.21;46.56;100618.13;4994658;28;20428;-79
2022/03/07 04:43:37;;;;;;;20.67;8.47;;;;;;;37.36;45.91;100627.81;4995027;28;20421;-80
2022/03/07 04:46:04;;;;;;;13.80;8.70;;;;;;;37.57;45.19;100631.63;4995302;28;20437;-77
2022/03/07 04:48:31;;;;;;;20.03;8.97;;;;;;;37.41;45.60;100643.13;4995245;28;20452;-76
2022/03/07 04:50:57;;;;;;;19.60;8.27;;;;;;;37.19;46.08;100641.16;4995143;28;20453;-79
2022/03/07 04:53:23;;;;;;;16.77;8.80;;;;;;;37.30;45.80;100651.44;4994575;28;20420;-78
2022/03/07 04:55:49;;;;;;;17.30;7.53;;;;;;;37.49;45.85;100640.47;4994382;28;20436;-79
2022/03/07 04:58:16;;;;;;;13.90;8.87;;;;;;;37.48;45.68;100638.06;5012057;28;20782;-78
2022/03/07 05:00:42;;;;;;;25.67;9.10;;;;;;;37.52;46.27;100645.28;5013838;28;20459;-77
2022/03/07 05:03:08;;;;;;;23.67;10.47;;;;;;;37.55;45.71;100638.44;5014709;28;20415;-79
2022/03/07 05:05:35;;;;;;;18.53;9.17;;;;;;;37.62;44.84;100650.41;5013883;28;20509;-78
2022/03/07 05:08:01;;;;;;;14.60;7.53;;;;;;;37.68;44.98;100653.78;5031878;28;20558;-77
2022/03/07 05:10:27;;;;;;;20.57;9.47;;;;;;;37.62;44.62;100658.53;5001618;28;20460;-78
2022/03/07 05:12:53;;;;;;;17.33;7.87;;;;;;;37.51;44.75;100657.22;4994283;28;20951;-79
2022/03/07 05:15:19;;;;;;;21.63;8.13;;;;;;;37.79;44.70;100671.38;4994383;28;20424;-79
2022/03/07 05:17:53;;;;;;;13.97;7.37;;;;;;;37.79;44.43;100670.59;5007552;28;20416;-78
2022/03/07 05:20:21;;;;;;;32.53;9.57;;;;;;;37.76;44.73;100679.34;5004335;28;20422;-76
2022/03/07 05:22:47;;;;;;;18.83;9.80;;;;;;;37.84;44.86;100686.75;5001544;28;20479;-77
2022/03/07 05:25:14;;;;;;;16.00;7.90;;;;;;;37.78;44.80;100685.25;5002657;28;20421;-77
2022/03/07 05:27:40;;;;;;;15.60;7.47;;;;;;;37.80;45.06;100689.25;5002997;28;20428;-78
2022/03/07 05:30:10;;;;;;;20.83;9.53;;;;;;;37.74;44.63;100686.97;5003054;28;20429;-77
2022/03/07 05:32:36;;;;;;;16.90;8.10;;;;;;;37.72;44.74;100683.78;4999867;28;20439;-74
2022/03/07 05:35:03;;;;;;;17.70;8.10;;;;;;;37.73;45.16;100693.47;4994375;28;20499;-73
2022/03/07 05:37:29;;;;;;;14.27;7.03;;;;;;;37.76;44.65;100695.59;4994692;28;20917;-75
2022/03/07 05:39:55;;;;;;;16.77;8.43;;;;;;;37.75;44.76;100697.50;4994337;28;20405;-73
2022/03/07 05:42:22;;;;;;;14.23;7.90;;;;;;;37.81;44.06;100696.28;4994083;28;20479;-73
2022/03/07 05:44:48;;;;;;;13.53;8.00;;;;;;;37.77;44.59;100706.09;4992416;28;20425;-73
2022/03/07 05:47:14;;;;;;;10.40;7.13;;;;;;;37.87;44.85;100705.06;4993753;28;20440;-70
2022/03/07 05:49:40;;;;;;;14.97;7.50;;;;;;;37.91;44.63;100709.56;4993476;28;20534;-71
2022/03/07 05:52:06;;;;;;;20.20;8.57;;;;;;;37.76;44.94;100704.50;4994362;28;20450;-72
2022/03/07 05:54:32;;;;;;;18.00;8.80;;;;;;;37.92;44.69;100713.84;5012064;28;20397;-69
2022/03/07 05:56:58;;;;;;;22.93;9.13;;;;;;;37.75;44.49;100713.75;5005065;28;21023;-71
2022/03/07 05:59:24;;;;;;;28.77;8.90;;;;;;;37.90;44.36;100715.28;5004425;28;20416;-74
2022/03/07 06:01:51;;;;;;;20.57;7.70;;;;;;;37.77;44.29;100726.97;5022329;28;20506;-75
2022/03/07 06:04:17;;;;;;;15.37;7.93;;;;;;;37.57;44.50;100728.25;5005262;28;20425;-72
2022/03/07 06:06:43;;;;;;;12.90;7.50;;;;;;;37.74;44.27;100730.28;5020291;28;20467;-73
2022/03/07 06:09:09;;;;;;;21.10;7.87;;;;;;;37.78;44.40;100734.78;5002385;28;20518;-70
2022/03/07 06:11:35;;;;;;;22.73;8.03;;;;;;;37.97;44.03;100731.09;5003439;28;20427;-72
2022/03/07 06:14:01;;;;;;;21.80;8.40;;;;;;;38.06;43.85;100745.47;5000285;28;21585;-71
2022/03/07 06:16:27;;;;;;;15.60;7.83;;;;;;;38.18;43.24;100765.50;5010502;28;20431;-72
2022/03/07 06:18:56;;;;;;;13.27;6.63;;;;;;;37.93;43.83;100768.81;4994179;28;20444;-72
2022/03/07 06:21:23;;;;;;;10.63;6.50;;;;;;;37.95;43.45;100777.44;5010612;28;20512;-74
2022/03/07 06:23:49;;;;;;;15.80;7.70;;;;;;;37.92;43.53;100788.88;5011751;28;20415;-73
2022/03/07 06:26:15;;;;;;;17.00;7.47;;;;;;;38.03;43.90;100790.22;5013619;28;20446;-74
2022/03/07 06:28:41;;;;;;;17.40;8.40;;;;;;;38.14;43.65;100799.72;5013648;28;20915;-76
2022/03/07 06:31:07;;;;;;;18.50;9.93;;;;;;;38.21;43.60;100793.06;5013306;28;20458;-75
2022/03/07 06:33:33;;;;;;;18.57;9.37;;;;;;;38.21;43.77;100796.56;5005147;28;21075;-74
2022/03/07 06:35:59;;;;;;;16.33;8.50;;;;;;;38.16;44.08;100805.63;4990204;28;20521;-73
2022/03/07 06:38:25;;;;;;;20.07;9.60;;;;;;;38.27;43.28;100806.19;4990842;28;20443;-75
2022/03/07 06:40:52;;;;;;;20.93;8.17;;;;;;;38.09;43.69;100807.97;4990213;28;20512;-75
2022/03/07 06:43:18;;;;;;;20.67;8.10;;;;;;;38.16;43.43;100813.75;4988563;28;20815;-74
2022/03/07 06:45:45;;;;;;;15.50;7.63;;;;;;;38.33;43.11;100815.00;4990289;28;20400;-76
2022/03/07 06:48:12;;;;;;;14.43;8.03;;;;;;;38.36;42.98;100817.06;4988841;28;20540;-75
2022/03/07 06:50:38;;;;;;;13.70;8.27;;;;;;;38.30;42.91;100812.88;4988728;28;20985;-76
2022/03/07 06:53:04;;;;;;;18.63;8.13;;;;;;;38.36;43.18;100814.38;4986216;28;20426;-76
2022/03/07 06:55:31;;;;;;;18.87;8.83;;;;;;;38.42;43.12;100824.75;4972353;28;20973;-75
2022/03/07 06:57:57;;;;;;;17.10;7.97;;;;;;;38.49;42.88;100828.94;4974140;28;20415;-75
2022/03/07 07:00:23;;;;;;;22.60;7.40;;;;;;;38.48;42.97;100833.56;4983911;28;20511;-76
2022/03/07 07:02:49;;;;;;;22.20;10.13;;;;;;;38.46;43.11;100835.78;4981705;28;20552;-76
2022/03/07 07:05:15;;;;;;;32.40;21.03;;;;;;;38.42;43.70;100841.03;4982773;28;20467;-76
2022/03/07 07:07:43;;;;;;;33.00;23.10;;;;;;;38.31;43.77;100839.69;4983590;28;20419;-73
2022/03/07 07:10:10;;;;;;;41.10;25.10;;;;;;;38.40;43.65;100842.44;4981835;28;20485;-73
2022/03/07 07:12:37;;;;;;;36.23;22.80;;;;;;;38.48;43.80;100849.03;4982539;28;20433;-76
2022/03/07 07:15:06;;;;;;;44.90;27.67;;;;;;;38.52;43.84;100850.00;4984141;28;20418;-71
2022/03/07 07:17:33;;;;;;;40.20;28.13;;;;;;;38.52;43.96;100866.28;4983020;28;20967;-71
2022/03/07 07:19:59;;;;;;;39.07;28.27;;;;;;;38.56;44.07;100864.56;4985795;28;20401;-71
2022/03/07 07:22:25;;;;;;;38.77;27.00;;;;;;;38.60;43.62;100868.22;4984503;28;20407;-71
2022/03/07 07:24:51;;;;;;;35.10;26.97;;;;;;;38.75;43.06;100869.78;4983137;28;20417;-73
2022/03/07 07:27:18;;;;;;;44.73;25.67;;;;;;;38.70;43.58;100868.78;4984664;28;20929;-73
2022/03/07 07:29:44;;;;;;;44.87;31.80;;;;;;;38.66;43.55;100875.91;4982719;28;20457;-74
2022/03/07 07:32:10;;;;;;;53.53;36.40;;;;;;;38.67;43.73;100874.81;5005099;23;20493;-72
2022/03/07 07:34:36;;;;;;;50.50;35.53;;;;;;;38.70;43.47;100876.91;4979670;28;20407;-72
2022/03/07 07:37:02;;;;;;;52.30;34.97;;;;;;;38.75;43.23;100875.22;5009814;28;20425;-74
2022/03/07 07:39:29;;;;;;;52.23;32.10;;;;;;;38.63;43.67;100884.69;4993297;28;20446;-75
2022/03/07 07:41:56;;;;;;;50.90;36.00;;;;;;;38.64;43.45;100886.28;4992931;28;20425;-75
2022/03/07 07:44:22;;;;;;;54.17;36.23;;;;;;;38.75;43.34;100891.47;5009446;28;20453;-74
2022/03/07 07:46:48;;;;;;;56.27;40.60;;;;;;;38.87;43.09;100889.78;4994572;28;20460;-74
2022/03/07 07:49:14;;;;;;;65.57;42.57;;;;;;;38.75;43.23;100891.47;5009380;28;20523;-73
2022/03/07 07:51:41;;;;;;;48.90;38.20;;;;;;;38.73;43.48;100888.25;4993115;28;20941;-70
2022/03/07 07:54:07;;;;;;;58.27;42.00;;;;;;;38.83;43.10;100893.41;4994356;28;20449;-71
2022/03/07 07:56:33;;;;;;;77.77;53.00;;;;;;;38.58;44.06;100901.06;4993042;28;20437;-70
2022/03/07 07:59:00;;;;;;;59.07;34.10;;;;;;;38.59;43.60;100905.38;5009207;28;20445;-71
2022/03/07 08:01:26;;;;;;;37.80;27.73;;;;;;;38.32;44.48;100910.94;4992731;28;21005;-71
2022/03/07 08:03:52;;;;;;;38.03;26.73;;;;;;;38.47;43.70;100901.63;4994207;28;20424;-77
2022/03/07 08:06:18;;;;;;;37.57;27.00;;;;;;;38.63;43.55;100903.66;4992356;28;20925;-79
2022/03/07 08:08:44;;;;;;;41.40;28.50;;;;;;;38.43;44.02;100909.59;4992058;28;20860;-79
2022/03/07 08:11:10;;;;;;;43.37;22.73;;;;;;;38.27;44.38;100908.34;4990506;28;20446;-80
2022/03/07 08:13:36;;;;;;;39.03;21.90;;;;;;;38.44;44.12;100903.84;4970186;28;20457;-79
2022/03/07 08:16:02;;;;;;;28.50;21.00;;;;;;;38.51;43.75;100905.34;4972775;28;20426;-77
2022/03/07 08:18:28;;;;;;;30.67;18.20;;;;;;;38.57;43.53;100907.59;4973271;28;20423;-77
2022/03/07 08:20:57;;;;;;;53.43;21.70;;;;;;;38.63;43.43;100911.78;4973048;28;20992;-76
2022/03/07 08:23:23;;;;;;;30.13;19.77;;;;;;;38.36;44.16;100920.84;4972514;28;20469;-77
2022/03/07 08:25:49;;;;;;;25.33;16.10;;;;;;;38.41;44.23;100925.34;4972920;28;20452;-75
2022/03/07 08:28:15;;;;;;;31.47;14.87;;;;;;;38.61;43.54;100918.63;4972619;28;20861;-77
2022/03/07 08:30:42;;;;;;;23.17;15.83;;;;;;;38.69;43.44;100912.47;4972549;28;20809;-77
2022/03/07 08:33:10;;;;;;;17.63;11.60;;;;;;;38.73;43.41;100907.22;4972828;28;21089;-77
2022/03/07 08:35:36;;;;;;;20.73;12.40;;;;;;;38.85;43.01;100907.47;4972489;28;20889;-81
2022/03/07 08:38:03;;;;;;;20.63;13.60;;;;;;;38.94;43.06;100900.97;4972215;28;20645;-78
2022/03/07 08:40:29;;;;;;;33.20;14.30;;;;;;;38.81;43.47;100906.50;4972561;28;20453;-78
2022/03/07 08:42:56;;;;;;;19.70;13.33;;;;;;;38.80;43.53;100897.56;4972111;28;20451;-78
2022/03/07 08:45:25;;;;;;;23.37;13.40;;;;;;;38.55;44.32;100890.88;4973006;28;20430;-80
2022/03/07 08:47:51;;;;;;;20.63;13.50;;;;;;;38.64;43.86;100886.28;4972672;28;20476;-80
2022/03/07 08:50:18;;;;;;;21.83;11.97;;;;;;;38.61;43.83;100891.50;4970873;28;20422;-80
2022/03/07 08:52:46;;;;;;;26.30;14.20;;;;;;;38.62;44.17;100885.00;4970822;28;20434;-79
2022/03/07 08:55:13;;;;;;;19.03;10.70;;;;;;;38.74;43.52;100879.84;4970636;28;20870;-78
2022/03/07 08:57:39;;;;;;;24.33;11.50;;;;;;;38.77;43.84;100875.69;4970730;28;20433;-80
2022/03/07 09:00:11;;;;;;;19.80;9.60;;;;;;;38.81;43.29;100876.66;4970904;28;20429;-80
2022/03/07 09:02:37;;;;;;;18.63;11.83;;;;;;;38.76;43.52;100882.22;4971411;28;20938;-81
2022/03/07 09:05:05;;;;;;;12.23;8.67;;;;;;;38.61;43.40;100876.06;4972761;28;20949;-78
2022/03/07 09:07:31;;;;;;;13.47;6.97;;;;;;;38.62;42.83;100876.88;4972374;28;20423;-76
2022/03/07 09:09:58;;;;;;;11.80;6.33;;;;;;;38.63;43.28;100873.03;4972163;28;20473;-74
2022/03/07 09:12:27;;;;;;;9.60;7.07;;;;;;;38.58;43.47;100875.88;4972333;28;20410;-73
2022/03/07 09:14:56;;;;;;;15.93;5.90;;;;;;;38.50;43.51;100885.56;4972227;28;20485;-77
2022/03/07 09:17:22;;;;;;;11.07;5.80;;;;;;;38.63;42.83;100876.53;4971732;28;20423;-74
2022/03/07 09:19:48;;;;;;;11.47;7.27;;;;;;;38.39;42.76;100882.31;4971985;28;20414;-73
2022/03/07 09:22:14;;;;;;;16.70;8.10;;;;;;;38.31;43.26;100879.53;4972080;28;20421;-73
2022/03/07 09:24:40;;;;;;;18.60;6.37;;;;;;;38.29;43.51;100885.25;4972383;28;20514;-73
2022/03/07 09:27:06;;;;;;;13.10;7.07;;;;;;;38.31;43.12;100883.06;4972059;28;20410;-74
2022/03/07 09:29:32;;;;;;;16.80;6.57;;;;;;;38.51;43.33;100887.16;4972233;28;20466;-76
2022/03/07 09:31:59;;;;;;;12.47;5.33;;;;;;;38.56;43.04;100886.25;4971914;28;20513;-75
2022/03/07 09:34:25;;;;;;;11.93;5.47;;;;;;;38.71;43.04;100885.84;4972038;28;20430;-75
2022/03/07 09:36:51;;;;;;;13.87;6.73;;;;;;;38.74;43.16;100898.81;4972053;28;20426;-75
2022/03/07 09:39:17;;;;;;;18.53;5.67;;;;;;;38.70;42.61;100890.47;4971905;28;20513;-74
2022/03/07 09:41:43;;;;;;;16.87;8.40;;;;;;;38.47;42.43;100897.00;4965342;28;20431;-73
2022/03/07 09:44:10;;;;;;;9.13;5.83;;;;;;;38.62;42.03;100893.94;4941512;29;20431;-75
2022/03/07 09:46:36;;;;;;;12.17;5.60;;;;;;;38.55;42.05;100898.16;4952264;29;20822;-76
2022/03/07 09:49:03;;;;;;;10.80;5.10;;;;;;;38.70;41.90;100898.59;4958457;28;20482;-77
2022/03/07 09:51:29;;;;;;;18.30;6.40;;;;;;;38.60;42.45;100903.47;4971850;28;20418;-76
2022/03/07 09:53:55;;;;;;;15.40;6.23;;;;;;;38.30;42.60;100900.38;4971915;28;20434;-69
2022/03/07 09:56:21;;;;;;;9.80;5.70;;;;;;;38.37;42.56;100903.50;4968004;28;20419;-73
2022/03/07 09:58:47;;;;;;;18.80;5.27;;;;;;;38.39;42.80;100903.19;4952481;29;20434;-73
2022/03/07 10:01:20;;;;;;;8.50;5.10;;;;;;;38.26;42.98;100895.88;4952289;28;20451;-73
2022/03/07 10:03:47;;;;;;;12.97;7.93;;;;;;;38.43;43.06;100896.84;4953697;28;20414;-74
2022/03/07 10:06:16;;;;;;;12.13;7.00;;;;;;;38.44;43.48;100892.22;4968517;28;20423;-76
2022/03/07 10:08:56;;;;;;;13.93;5.70;;;;;;;38.53;43.08;100893.06;4952323;29;20462;-75
2022/03/07 10:11:24;;;;;;;15.53;7.63;;;;;;;38.37;43.23;100889.94;4951379;29;20459;-75
2022/03/07 10:13:56;;;;;;;10.50;5.70;;;;;;;38.40;42.99;100885.81;4952340;29;20908;-75
2022/03/07 10:16:22;;;;;;;10.43;5.30;;;;;;;38.49;43.11;100881.25;4951956;29;20451;-76
2022/03/07 10:18:50;;;;;;;11.87;6.90;;;;;;;38.42;44.06;100880.88;4967888;28;20423;-73
2022/03/07 10:21:27;;;;;;;20.03;7.33;;;;;;;38.50;43.49;100872.00;4951650;29;20430;-75
2022/03/07 10:23:57;;;;;;;15.83;6.27;;;;;;;38.70;43.02;100874.19;4968217;28;20451;-73
2022/03/07 10:26:24;;;;;;;13.40;6.43;;;;;;;38.65;43.04;100866.19;4953509;28;20402;-73
2022/03/07 10:28:56;;;;;;;13.50;5.70;;;;;;;38.76;43.37;100861.34;4952158;28;20468;-73
2022/03/07 10:31:23;;;;;;;13.47;6.80;;;;;;;38.81;42.62;100868.53;4959909;28;20430;-75
2022/03/07 10:34:04;;;;;;;13.00;5.73;;;;;;;38.41;43.06;100858.38;4994473;28;20896;-73
2022/03/07 10:36:36;;;;;;;15.63;5.60;;;;;;;38.56;43.47;100856.41;4995849;28;20468;-76
2022/03/07 10:39:08;;;;;;;14.60;7.00;;;;;;;38.46;43.19;100868.31;4978329;28;20512;-75
2022/03/07 10:41:39;;;;;;;7.50;4.87;;;;;;;38.56;42.78;100857.22;4978160;28;20421;-73
2022/03/07 10:44:08;;;;;;;12.60;6.80;;;;;;;38.53;42.86;100852.41;4994460;28;20923;-74
2022/03/07 10:46:34;;;;;;;12.90;5.30;;;;;;;38.63;42.64;100854.06;4994343;28;20417;-73
2022/03/07 10:49:00;;;;;;;10.40;5.90;;;;;;;38.72;42.77;100848.69;4978197;28;21007;-74
2022/03/07 10:51:27;;;;;;;9.30;4.73;;;;;;;38.62;42.92;100847.84;4978163;28;20421;-73
2022/03/07 10:53:54;;;;;;;8.73;4.87;;;;;;;38.55;43.25;100849.38;4978128;28;20444;-74
2022/03/07 10:56:23;;;;;;;13.50;6.60;;;;;;;38.58;43.35;100846.84;4977915;28;21036;-73
2022/03/07 10:58:54;;;;;;;10.83;5.33;;;;;;;38.77;43.15;100851.28;4995431;28;20406;-75
2022/03/07 11:01:32;;;;;;;13.30;6.10;;;;;;;38.85;43.18;100842.38;4995029;28;20425;-76
2022/03/07 11:03:58;;;;;;;22.10;5.83;;;;;;;39.08;42.09;100841.19;4977847;28;20432;-77
2022/03/07 11:06:28;;;;;;;13.03;5.63;;;;;;;38.81;42.62;100838.72;4994042;28;20503;-76
2022/03/07 11:08:56;;;;;;;11.47;5.50;;;;;;;38.61;42.93;100832.69;4993869;28;20465;-76
2022/03/07 11:11:22;;;;;;;11.00;5.43;;;;;;;38.74;42.72;100824.81;4977737;28;20417;-73
2022/03/07 11:13:54;;;;;;;11.63;5.53;;;;;;;38.77;42.38;100826.88;4977757;28;20428;-77